Time;durP1;ratioP1;P1;durP2;ratioP2;P2;SDS_P1;SDS_P2;PMS_P1;PMS_P2;Temp;Humidity;BMP_temperature;BMP_pressure;BME280_temperature;BME280_humidity;BME280_pressure;Samples;Min_cycle;Max_cycle;Signal;HPM_P1;HPM_P2
2022/11/18 00:01:13;;;;;;;7.53;2.17;;;10.50;99.90;;;;;;2070207;28;20033;-70
2022/11/18 00:02:14;;;;;;;6.80;2.45;;;10.50;99.90;;;;;;2070507;28;20060;-70
2022/11/18 00:03:15;;;;;;;4.07;2.10;;;10.50;99.90;;;;;;2070824;28;20104;-70
2022/11/18 00:04:16;;;;;;;5.25;2.58;;;10.50;99.90;;;;;;2070443;28;20030;-70
2022/11/18 00:05:17;;;;;;;5.30;2.25;;;10.50;99.90;;;;;;2071234;28;20088;-70
2022/11/18 00:06:20;;;;;;;4.63;2.05;;;10.50;99.90;;;;;;2070384;28;20399;-70
2022/11/18 00:07:21;;;;;;;5.10;2.58;;;10.60;99.90;;;;;;2071334;28;20096;-70
2022/11/18 00:08:23;;;;;;;5.43;1.92;;;10.60;99.90;;;;;;2070532;28;20502;-70
2022/11/18 00:09:23;;;;;;;5.45;2.40;;;10.60;99.90;;;;;;2071052;28;20117;-70
2022/11/18 00:10:24;;;;;;;5.90;2.38;;;10.60;99.90;;;;;;2070658;28;20029;-70
2022/11/18 00:14:19;;;;;;;5.40;1.98;;;10.60;99.90;;;;;;2069694;28;20469;-70
2022/11/18 00:15:19;;;;;;;6.63;2.45;;;10.60;99.90;;;;;;2068977;28;20426;-70
2022/11/18 00:16:20;;;;;;;6.32;2.47;;;10.60;99.90;;;;;;2069987;28;20048;-70
2022/11/18 00:17:20;;;;;;;4.07;2.30;;;10.60;99.90;;;;;;2068813;28;20030;-70
2022/11/18 00:18:21;;;;;;;6.35;2.45;;;10.60;99.90;;;;;;2072372;28;20421;-70
2022/11/18 00:19:35;;;;;;;4.40;1.95;;;10.60;99.90;;;;;;2069732;28;20021;-70
2022/11/18 00:20:36;;;;;;;4.63;2.22;;;10.60;99.90;;;;;;2069942;28;20025;-70
2022/11/18 00:21:36;;;;;;;4.82;2.03;;;10.60;99.90;;;;;;2069377;28;20457;-70
2022/11/18 00:22:37;;;;;;;4.25;2.25;;;10.60;99.90;;;;;;2068876;28;20417;-70
2022/11/18 00:23:38;;;;;;;6.18;2.28;;;10.70;99.90;;;;;;2068479;28;20485;-70
2022/11/18 00:24:38;;;;;;;5.85;2.72;;;10.70;99.90;;;;;;2070331;28;20030;-70
2022/11/18 00:25:39;;;;;;;7.05;2.45;;;10.70;99.90;;;;;;2069329;28;20111;-70
2022/11/18 00:26:39;;;;;;;5.90;2.10;;;10.70;99.90;;;;;;2070657;28;20026;-70
2022/11/18 00:27:40;;;;;;;5.00;2.22;;;10.70;99.90;;;;;;2066234;28;20030;-70
2022/11/18 00:28:40;;;;;;;5.85;2.40;;;10.70;99.90;;;;;;2068045;28;20038;-70
2022/11/18 00:29:41;;;;;;;3.53;2.50;;;10.70;99.90;;;;;;2070607;28;20037;-70
2022/11/18 00:30:42;;;;;;;8.40;2.63;;;10.70;99.90;;;;;;2070368;28;20118;-70
2022/11/18 00:31:43;;;;;;;5.93;2.83;;;10.70;99.90;;;;;;2071909;28;20501;-70
2022/11/18 00:32:43;;;;;;;5.75;2.33;;;10.70;99.90;;;;;;2069122;28;20455;-70
2022/11/18 00:33:44;;;;;;;8.45;2.70;;;10.70;99.90;;;;;;2070046;28;20825;-70
2022/11/18 00:34:45;;;;;;;5.68;2.53;;;10.70;99.90;;;;;;2071089;28;20061;-70
2022/11/18 00:35:53;;;;;;;7.28;2.28;;;10.80;99.90;;;;;;2069545;28;20068;-70
2022/11/18 00:36:54;;;;;;;9.75;2.40;;;10.80;99.90;;;;;;2070970;28;20100;-70
2022/11/18 00:37:54;;;;;;;5.75;2.10;;;10.80;99.90;;;;;;2071791;28;20026;-70
2022/11/18 00:38:55;;;;;;;5.90;2.63;;;10.80;99.90;;;;;;2068931;28;20063;-70
2022/11/18 00:39:56;;;;;;;6.03;2.40;;;10.80;99.90;;;;;;2070545;28;20022;-70
2022/11/18 00:41:10;;;;;;;7.72;2.45;;;10.80;99.90;;;;;;2069012;28;20033;-70
2022/11/18 00:43:43;;;;;;;6.18;2.47;;;10.80;99.90;;;;;;2060921;28;20038;-70
2022/11/18 00:44:43;;;;;;;5.53;2.33;;;10.80;99.90;;;;;;2067340;28;20065;-70
2022/11/18 00:45:44;;;;;;;4.22;2.10;;;10.80;99.90;;;;;;2070028;28;20202;-70
2022/11/18 00:46:44;;;;;;;4.50;2.03;;;10.80;99.90;;;;;;2072598;28;20038;-70
2022/11/18 00:47:45;;;;;;;6.03;2.17;;;10.80;99.90;;;;;;2070947;28;20041;-70
2022/11/18 00:48:46;;;;;;;6.72;2.90;;;10.90;99.90;;;;;;2071688;28;20037;-70
2022/11/18 00:49:46;;;;;;;7.30;2.65;;;10.90;99.90;;;;;;2071128;28;20097;-70
2022/11/18 00:50:49;;;;;;;4.82;2.40;;;10.90;99.90;;;;;;2069488;28;20030;-70
2022/11/18 00:51:49;;;;;;;5.10;2.53;;;10.90;99.90;;;;;;2069418;28;20767;-70
2022/11/18 00:52:50;;;;;;;6.20;2.53;;;10.90;99.90;;;;;;2068543;28;22247;-70
2022/11/18 00:53:51;;;;;;;5.95;2.28;;;10.90;99.90;;;;;;2069100;28;20155;-70
2022/11/18 00:54:51;;;;;;;5.05;2.67;;;10.90;99.90;;;;;;2069964;28;20022;-70
2022/11/18 00:55:52;;;;;;;4.70;2.30;;;10.90;99.90;;;;;;2067325;28;20029;-70
2022/11/18 00:56:52;;;;;;;5.75;2.58;;;10.90;99.90;;;;;;2069247;28;20057;-70
2022/11/18 00:57:53;;;;;;;4.95;2.13;;;10.90;99.90;;;;;;2068710;28;20041;-70
2022/11/18 00:58:53;;;;;;;6.05;2.65;;;10.90;99.90;;;;;;2069949;28;20030;-70
2022/11/18 00:59:54;;;;;;;5.20;2.20;;;10.90;99.90;;;;;;2069496;28;20028;-70
2022/11/18 01:00:54;;;;;;;4.22;2.33;;;10.90;99.90;;;;;;2070394;28;20030;-70
2022/11/18 01:01:55;;;;;;;5.60;2.60;;;10.90;99.90;;;;;;2070418;28;20033;-70
2022/11/18 01:02:55;;;;;;;8.57;2.85;;;10.90;99.90;;;;;;2069281;28;20018;-70
2022/11/18 01:03:56;;;;;;;7.00;2.10;;;10.90;99.90;;;;;;2070509;28;20060;-70
2022/11/18 01:04:56;;;;;;;5.20;2.42;;;10.90;99.90;;;;;;2069478;28;20027;-70
2022/11/18 01:05:57;;;;;;;7.20;2.92;;;11.00;99.90;;;;;;2069382;28;20607;-70
2022/11/18 01:06:58;;;;;;;7.95;2.38;;;10.90;99.90;;;;;;2071329;28;20022;-70
2022/11/18 01:07:58;;;;;;;5.82;2.45;;;10.90;99.90;;;;;;2069377;28;20390;-70
2022/11/18 01:08:59;;;;;;;6.50;2.42;;;10.90;99.90;;;;;;2069127;28;20661;-70
2022/11/18 01:09:59;;;;;;;5.72;2.20;;;11.00;99.90;;;;;;2070306;28;20907;-70
2022/11/18 01:13:18;;;;;;;4.72;2.20;;;11.00;99.90;;;;;;2068442;28;20030;-70
2022/11/18 01:13:39;;;;;;;5.22;2.00;;;10.90;99.90;;;;;;2070490;28;20030;-70
2022/11/18 01:14:40;;;;;;;6.38;2.20;;;10.90;99.90;;;;;;2071819;28;20010;-70
2022/11/18 01:15:43;;;;;;;5.18;2.10;;;10.90;99.90;;;;;;2070733;28;20068;-70
2022/11/18 01:16:49;;;;;;;4.82;2.25;;;10.90;99.90;;;;;;2069482;28;20024;-70
2022/11/18 01:17:50;;;;;;;5.72;2.17;;;10.90;99.90;;;;;;2069689;28;20079;-70
2022/11/18 01:18:51;;;;;;;6.50;2.20;;;10.90;99.90;;;;;;2069110;28;20087;-70
2022/11/18 01:19:51;;;;;;;4.05;1.88;;;10.90;99.90;;;;;;2069901;28;20034;-70
2022/11/18 01:20:52;;;;;;;5.22;2.00;;;10.90;99.90;;;;;;2070065;28;20470;-70
2022/11/18 01:21:55;;;;;;;6.68;2.47;;;10.90;99.90;;;;;;2068736;28;20025;-70
2022/11/18 01:22:55;;;;;;;5.40;2.33;;;10.90;99.90;;;;;;2069005;28;20496;-70
2022/11/18 01:23:56;;;;;;;9.18;2.70;;;10.90;99.90;;;;;;2069384;28;20425;-70
2022/11/18 01:24:56;;;;;;;5.53;2.50;;;11.00;99.90;;;;;;2068452;28;20449;-70
2022/11/18 01:26:02;;;;;;;4.75;1.95;;;11.00;99.90;;;;;;2069333;28;20033;-70
2022/11/18 01:27:03;;;;;;;5.10;2.17;;;11.00;99.90;;;;;;2068906;28;20470;-70
2022/11/18 01:28:04;;;;;;;5.53;2.35;;;11.00;99.90;;;;;;2069435;28;20519;-70
2022/11/18 01:29:04;;;;;;;4.75;2.20;;;11.00;99.90;;;;;;2068719;28;21580;-70
2022/11/18 01:30:05;;;;;;;8.35;2.67;;;11.00;99.90;;;;;;2070892;28;20040;-70
2022/11/18 01:31:15;;;;;;;6.25;2.50;;;11.00;99.90;;;;;;2069113;28;20021;-70
2022/11/18 01:32:15;;;;;;;5.35;2.30;;;11.00;99.90;;;;;;2070564;28;20022;-70
2022/11/18 01:33:16;;;;;;;5.95;2.30;;;11.00;99.90;;;;;;2070036;28;20084;-70
2022/11/18 01:34:16;;;;;;;4.55;2.42;;;11.00;99.90;;;;;;2067786;28;20040;-70
2022/11/18 01:35:17;;;;;;;3.33;2.40;;;11.10;99.90;;;;;;2070510;28;20023;-70
2022/11/18 01:36:27;;;;;;;5.80;2.35;;;11.10;99.90;;;;;;2069951;28;20018;-70
2022/11/18 01:37:27;;;;;;;5.45;2.20;;;11.10;99.90;;;;;;2070698;28;20014;-70
2022/11/18 01:38:28;;;;;;;7.03;2.17;;;11.10;99.90;;;;;;2070810;28;20034;-70
2022/11/18 01:39:30;;;;;;;6.55;2.20;;;11.10;99.90;;;;;;2070344;28;20086;-70
2022/11/18 01:40:31;;;;;;;6.72;2.63;;;11.10;99.90;;;;;;2068649;28;20405;-70
2022/11/18 01:41:32;;;;;;;4.35;1.90;;;11.10;99.90;;;;;;2070751;28;20030;-70
2022/11/18 01:42:33;;;;;;;4.28;1.92;;;11.10;99.90;;;;;;2069613;28;20021;-70
2022/11/18 01:43:53;;;;;;;5.32;2.40;;;11.10;99.90;;;;;;2068053;28;20088;-70
2022/11/18 01:45:13;;;;;;;5.20;2.25;;;11.10;99.90;;;;;;2070840;28;20033;-70
2022/11/18 01:46:13;;;;;;;5.22;2.50;;;11.10;99.90;;;;;;2071146;28;20030;-70
2022/11/18 01:47:14;;;;;;;5.22;2.55;;;11.10;99.90;;;;;;2070201;28;20033;-70
2022/11/18 01:48:20;;;;;;;5.10;2.20;;;11.10;99.90;;;;;;2068285;28;20018;-70
2022/11/18 01:49:21;;;;;;;4.82;2.20;;;11.20;99.90;;;;;;2068243;28;20386;-70
2022/11/18 01:50:23;;;;;;;4.75;2.60;;;11.10;99.90;;;;;;2068773;28;20130;-70
2022/11/18 01:51:37;;;;;;;7.20;2.30;;;11.20;99.90;;;;;;2069532;28;20034;-70
2022/11/18 01:52:39;;;;;;;6.65;2.15;;;11.20;99.90;;;;;;2070637;28;20105;-70
2022/11/18 01:53:46;;;;;;;5.35;2.20;;;11.20;99.90;;;;;;2069848;28;20022;-70
2022/11/18 01:54:51;;;;;;;4.05;2.05;;;11.20;99.90;;;;;;2069441;28;20496;-70
2022/11/18 01:55:55;;;;;;;7.93;2.63;;;11.20;99.90;;;;;;2068309;28;20524;-70
2022/11/18 01:56:59;;;;;;;5.22;2.60;;;11.20;99.90;;;;;;2069972;28;20041;-70
2022/11/18 01:58:08;;;;;;;6.95;2.38;;;11.10;99.90;;;;;;2069759;28;20121;-70
2022/11/18 01:59:16;;;;;;;5.15;1.92;;;11.10;99.90;;;;;;2071205;28;20038;-70
2022/11/18 02:00:17;;;;;;;5.25;2.30;;;11.10;99.90;;;;;;2072361;28;20052;-70
2022/11/18 02:01:18;;;;;;;6.72;2.13;;;11.10;99.90;;;;;;2071196;28;20069;-70
2022/11/18 02:02:21;;;;;;;5.63;2.50;;;11.10;99.90;;;;;;2069665;28;20129;-70
2022/11/18 02:03:23;;;;;;;5.57;2.17;;;11.10;99.90;;;;;;2067402;28;20080;-70
2022/11/18 02:04:24;;;;;;;4.28;1.80;;;11.10;99.90;;;;;;2067871;28;20022;-70
2022/11/18 02:05:26;;;;;;;5.07;1.92;;;11.10;99.90;;;;;;2070300;28;20030;-70
2022/11/18 02:06:26;;;;;;;5.22;2.33;;;11.10;99.90;;;;;;2071368;28;20682;-70
2022/11/18 02:07:27;;;;;;;4.22;2.20;;;11.10;99.90;;;;;;2069631;28;20054;-70
2022/11/18 02:08:29;;;;;;;7.47;2.15;;;11.10;99.90;;;;;;2069029;28;20360;-70
2022/11/18 02:09:30;;;;;;;6.45;2.63;;;11.10;99.90;;;;;;2071243;28;20022;-70
2022/11/18 02:10:30;;;;;;;4.93;2.00;;;11.10;99.90;;;;;;2070492;28;20557;-70
2022/11/18 02:11:50;;;;;;;2.90;1.85;;;11.10;99.90;;;;;;2068588;28;20036;-70
2022/11/18 02:12:52;;;;;;;4.30;1.98;;;11.10;99.90;;;;;;2071084;28;20026;-70
2022/11/18 02:13:52;;;;;;;5.65;2.33;;;11.10;99.90;;;;;;2067924;28;20061;-70
2022/11/18 02:14:53;;;;;;;5.22;1.98;;;11.10;99.90;;;;;;2070814;28;20029;-70
2022/11/18 02:16:05;;;;;;;5.10;2.00;;;11.10;99.90;;;;;;2068247;28;20022;-70
2022/11/18 02:17:43;;;;;;;4.45;2.08;;;11.10;99.90;;;;;;2069469;28;20053;-70
2022/11/18 02:18:56;;;;;;;4.45;1.65;;;11.10;99.90;;;;;;2069860;28;20382;-70
2022/11/18 02:20:08;;;;;;;7.15;1.95;;;11.00;99.90;;;;;;2069988;28;20099;-70
2022/11/18 02:21:27;;;;;;;6.72;2.00;;;11.00;99.90;;;;;;2071024;28;20041;-70
2022/11/18 02:22:31;;;;;;;6.18;1.80;;;11.00;99.90;;;;;;2070930;28;20470;-70
2022/11/18 02:23:52;;;;;;;5.53;1.85;;;11.00;99.90;;;;;;2067452;28;20113;-70
2022/11/18 02:25:16;;;;;;;5.75;2.08;;;11.00;99.90;;;;;;2069636;28;20032;-70
2022/11/18 02:26:36;;;;;;;4.43;1.70;;;11.00;99.90;;;;;;2068824;28;20029;-70
2022/11/18 02:27:54;;;;;;;3.80;1.77;;;11.00;99.90;;;;;;2069891;28;20029;-70
2022/11/18 02:29:14;;;;;;;4.07;1.90;;;11.00;99.90;;;;;;2071928;28;20026;-70
2022/11/18 02:30:17;;;;;;;4.50;2.13;;;11.00;99.90;;;;;;2071374;28;20116;-70
2022/11/18 02:31:34;;;;;;;7.22;2.47;;;11.00;99.90;;;;;;2068948;28;20040;-70
2022/11/18 02:33:11;;;;;;;3.83;1.77;;;11.00;99.90;;;;;;2069363;28;20541;-70
2022/11/18 02:34:27;;;;;;;2.67;1.48;;;11.00;99.90;;;;;;2058152;28;20482;-70
2022/11/18 02:35:50;;;;;;;3.83;2.03;;;11.00;99.90;;;;;;2066030;28;20109;-70
2022/11/18 02:36:57;;;;;;;3.90;1.75;;;11.00;99.90;;;;;;2066945;28;20064;-70
2022/11/18 02:38:05;;;;;;;6.75;1.83;;;11.00;99.90;;;;;;2069765;28;20026;-70
2022/11/18 02:39:14;;;;;;;4.88;1.85;;;11.00;99.90;;;;;;2069181;28;20018;-70
2022/11/18 02:40:20;;;;;;;3.73;1.73;;;11.00;99.90;;;;;;2069078;28;20014;-70
2022/11/18 02:41:26;;;;;;;7.95;2.03;;;11.00;99.90;;;;;;2068688;28;20357;-70
2022/11/18 02:42:30;;;;;;;3.22;1.48;;;11.00;99.90;;;;;;2068862;28;20022;-70
2022/11/18 02:43:36;;;;;;;5.47;2.33;;;11.00;99.90;;;;;;2066419;28;20032;-70
2022/11/18 02:44:41;;;;;;;3.97;1.73;;;11.00;99.90;;;;;;2066270;28;20027;-70
2022/11/18 02:45:45;;;;;;;3.95;1.65;;;11.00;99.90;;;;;;2069813;28;20033;-70
2022/11/18 02:46:50;;;;;;;5.18;1.83;;;11.00;99.90;;;;;;2070238;28;20113;-70
2022/11/18 02:47:51;;;;;;;4.00;1.80;;;11.00;99.90;;;;;;2069649;28;21142;-70
2022/11/18 02:48:53;;;;;;;7.25;2.50;;;11.00;99.90;;;;;;2072693;28;20034;-70
2022/11/18 02:49:58;;;;;;;4.10;1.60;;;11.00;99.90;;;;;;2071133;28;20021;-70
2022/11/18 02:51:01;;;;;;;4.25;1.88;;;11.00;99.90;;;;;;2070893;28;20721;-70
2022/11/18 02:52:05;;;;;;;3.05;1.55;;;11.00;99.90;;;;;;2071160;28;20505;-70
2022/11/18 02:53:09;;;;;;;4.78;1.90;;;11.00;99.90;;;;;;2069684;28;20022;-70
2022/11/18 02:54:12;;;;;;;3.83;1.70;;;11.00;99.90;;;;;;2069877;28;20026;-70
2022/11/18 02:55:14;;;;;;;3.42;1.88;;;11.00;99.90;;;;;;2070239;28;20109;-70
2022/11/18 02:56:17;;;;;;;4.70;2.10;;;11.00;99.90;;;;;;2071668;28;20028;-70
2022/11/18 02:57:19;;;;;;;4.60;1.58;;;11.00;99.90;;;;;;2070470;28;20386;-70
2022/11/18 02:58:21;;;;;;;5.75;1.75;;;11.00;99.90;;;;;;2067874;28;20032;-70
2022/11/18 02:59:22;;;;;;;4.05;1.92;;;11.00;99.90;;;;;;2071178;28;20061;-70
2022/11/18 03:00:22;;;;;;;4.00;1.85;;;11.00;99.90;;;;;;2070976;28;20018;-70
2022/11/18 03:01:27;;;;;;;4.65;1.70;;;11.00;99.90;;;;;;2071691;28;20076;-70
2022/11/18 03:02:38;;;;;;;4.75;2.10;;;11.00;99.90;;;;;;2070208;28;20018;-70
2022/11/18 03:03:38;;;;;;;4.78;1.65;;;11.00;99.90;;;;;;2071249;28;20032;-70
2022/11/18 03:04:39;;;;;;;2.75;1.42;;;11.00;99.90;;;;;;2069403;28;20026;-70
2022/11/18 03:05:55;;;;;;;1.95;1.45;;;11.00;99.90;;;;;;2071519;28;20034;-70
2022/11/18 03:07:18;;;;;;;2.38;1.60;;;11.00;99.90;;;;;;2071309;28;20018;-70
2022/11/18 03:08:24;;;;;;;3.28;1.50;;;11.00;99.90;;;;;;2070622;28;20053;-70
2022/11/18 03:09:37;;;;;;;4.03;1.80;;;11.00;99.90;;;;;;2069894;28;20022;-70
2022/11/18 03:11:02;;;;;;;4.93;2.03;;;11.00;99.90;;;;;;2070709;28;20052;-70
2022/11/18 03:12:50;;;;;;;2.33;1.70;;;10.90;99.90;;;;;;2070902;28;20030;-70
2022/11/18 03:14:27;;;;;;;4.55;1.70;;;10.90;99.90;;;;;;2070945;28;20084;-70
2022/11/18 03:15:51;;;;;;;4.53;1.83;;;10.80;99.90;;;;;;2072131;28;20025;-70
2022/11/18 03:16:59;;;;;;;4.18;1.83;;;10.80;99.90;;;;;;2072011;28;20030;-70
2022/11/18 03:18:25;;;;;;;2.55;1.50;;;10.70;99.90;;;;;;2072457;28;20029;-70
2022/11/18 03:20:02;;;;;;;4.13;1.50;;;10.80;99.90;;;;;;2071990;28;20086;-70
2022/11/18 03:21:16;;;;;;;2.72;1.50;;;10.70;99.90;;;;;;2067765;28;20038;-70
2022/11/18 03:22:35;;;;;;;4.95;1.85;;;10.70;99.90;;;;;;2071956;28;20026;-70
2022/11/18 03:23:43;;;;;;;3.35;1.73;;;10.80;99.90;;;;;;2068308;28;20048;-70
2022/11/18 03:25:00;;;;;;;4.25;1.90;;;10.70;99.90;;;;;;2069886;28;20026;-70
2022/11/18 03:26:12;;;;;;;4.43;2.10;;;10.70;99.90;;;;;;2070339;28;20041;-70
2022/11/18 03:27:24;;;;;;;8.18;1.95;;;10.70;99.90;;;;;;2070369;28;20072;-70
2022/11/18 03:28:44;;;;;;;3.75;2.00;;;10.70;99.90;;;;;;2068251;28;20018;-70
2022/11/18 03:29:53;;;;;;;3.90;2.17;;;10.70;99.90;;;;;;2070846;28;20045;-70
2022/11/18 03:31:00;;;;;;;5.75;1.85;;;10.70;99.90;;;;;;2070408;28;20034;-70
2022/11/18 03:32:24;;;;;;;5.50;2.15;;;10.70;99.90;;;;;;2070186;28;20092;-70
2022/11/18 03:33:33;;;;;;;2.75;1.83;;;10.70;99.90;;;;;;2069502;28;20022;-70
2022/11/18 03:34:42;;;;;;;4.25;1.55;;;10.70;99.90;;;;;;2070581;28;20513;-70
2022/11/18 03:35:48;;;;;;;2.75;1.80;;;10.70;99.90;;;;;;2070876;28;20037;-70
2022/11/18 03:36:56;;;;;;;6.15;2.03;;;10.70;99.90;;;;;;2068651;28;20027;-70
2022/11/18 03:38:04;;;;;;;4.00;1.90;;;10.70;99.90;;;;;;2071025;28;20026;-70
2022/11/18 03:39:06;;;;;;;7.15;2.17;;;10.70;99.90;;;;;;2071533;28;20018;-70
2022/11/18 03:40:29;;;;;;;3.05;1.90;;;10.70;99.90;;;;;;2070366;28;20056;-70
2022/11/18 03:41:35;;;;;;;3.83;2.10;;;10.70;99.90;;;;;;2070125;28;20046;-70
2022/11/18 03:42:43;;;;;;;6.75;2.40;;;10.70;99.90;;;;;;2071806;28;20960;-70
2022/11/18 03:43:50;;;;;;;4.68;2.25;;;10.70;99.90;;;;;;2071318;28;20466;-70
2022/11/18 03:44:55;;;;;;;4.40;2.30;;;10.70;99.90;;;;;;2072331;28;20454;-70
2022/11/18 03:46:04;;;;;;;5.93;2.05;;;10.70;99.90;;;;;;2071312;28;20014;-70
2022/11/18 03:47:18;;;;;;;4.50;2.00;;;10.70;99.90;;;;;;2070725;28;20053;-70
2022/11/18 03:48:28;;;;;;;9.43;2.38;;;10.70;99.90;;;;;;2072006;28;20022;-70
2022/11/18 03:49:34;;;;;;;5.88;2.17;;;10.80;99.90;;;;;;2071066;28;20022;-70
2022/11/18 03:50:47;;;;;;;3.38;1.90;;;10.70;99.90;;;;;;2070136;28;20018;-70
2022/11/18 03:51:54;;;;;;;4.35;1.90;;;10.70;99.90;;;;;;2070497;28;20025;-70
2022/11/18 03:52:55;;;;;;;5.82;1.88;;;10.80;99.90;;;;;;2069399;28;20062;-70
2022/11/18 03:54:01;;;;;;;5.03;2.35;;;10.80;99.90;;;;;;2070981;28;20038;-70
2022/11/18 03:55:09;;;;;;;5.32;2.40;;;10.80;99.90;;;;;;2072261;28;20045;-70
2022/11/18 03:56:17;;;;;;;5.35;2.22;;;10.80;99.90;;;;;;2071391;28;20126;-70
2022/11/18 03:57:24;;;;;;;6.53;2.20;;;10.80;99.90;;;;;;2072046;28;20033;-70
2022/11/18 03:58:47;;;;;;;7.82;2.58;;;10.80;99.90;;;;;;2071609;28;20026;-70
2022/11/18 03:59:55;;;;;;;5.63;2.20;;;10.80;99.90;;;;;;2060544;28;20058;-70
2022/11/18 04:01:03;;;;;;;8.00;2.35;;;10.80;99.90;;;;;;2070699;28;20378;-70
2022/11/18 04:02:17;;;;;;;5.78;2.33;;;10.80;99.90;;;;;;2068912;28;20030;-70
2022/11/18 04:03:18;;;;;;;5.03;2.22;;;10.80;99.90;;;;;;2069043;28;20026;-70
2022/11/18 04:04:19;;;;;;;5.00;2.15;;;10.80;99.90;;;;;;2067308;28;20026;-70
2022/11/18 04:05:20;;;;;;;4.40;2.10;;;10.80;99.90;;;;;;2069612;28;20050;-70
2022/11/18 04:06:27;;;;;;;6.85;2.40;;;10.80;99.90;;;;;;2070285;28;20022;-70
2022/11/18 04:07:55;;;;;;;4.93;2.13;;;10.80;99.90;;;;;;2068072;28;20022;-70
2022/11/18 04:08:59;;;;;;;5.32;2.22;;;10.90;99.90;;;;;;2070052;28;20870;-70
2022/11/18 04:10:17;;;;;;;7.18;2.17;;;10.80;99.90;;;;;;2069294;28;20486;-70
2022/11/18 04:13:03;;;;;;;6.18;1.90;;;10.90;99.90;;;;;;2070188;28;20420;-70
2022/11/18 04:14:06;;;;;;;4.88;2.30;;;10.90;99.90;;;;;;2070428;28;20393;-70
2022/11/18 04:15:07;;;;;;;4.03;2.03;;;10.90;99.90;;;;;;2070578;28;20104;-70
2022/11/18 04:16:08;;;;;;;10.50;2.78;;;10.90;99.90;;;;;;2069338;28;20513;-70
2022/11/18 04:17:12;;;;;;;7.28;2.70;;;10.90;99.90;;;;;;2070587;28;20385;-70
2022/11/18 04:18:12;;;;;;;4.68;2.10;;;10.90;99.90;;;;;;2071196;28;20045;-70
2022/11/18 04:19:13;;;;;;;4.65;2.65;;;10.90;99.90;;;;;;2070570;28;20105;-70
2022/11/18 04:20:17;;;;;;;3.92;2.22;;;11.00;99.90;;;;;;2070142;28;20034;-70
2022/11/18 04:21:17;;;;;;;4.85;2.38;;;10.90;99.90;;;;;;2070590;28;20056;-70
2022/11/18 04:22:19;;;;;;;7.55;2.90;;;11.00;99.90;;;;;;2068090;28;20030;-70
2022/11/18 04:23:19;;;;;;;5.18;2.20;;;11.00;99.90;;;;;;2070279;28;20065;-70
2022/11/18 04:24:20;;;;;;;7.18;2.15;;;11.00;99.90;;;;;;2070365;28;20026;-70
2022/11/18 04:25:20;;;;;;;5.90;2.38;;;11.00;99.90;;;;;;2070648;28;20026;-70
2022/11/18 04:26:21;;;;;;;5.22;2.42;;;11.00;99.90;;;;;;2069948;28;20026;-70
2022/11/18 04:27:21;;;;;;;4.32;2.47;;;11.00;99.90;;;;;;2071923;28;20152;-70
2022/11/18 04:28:22;;;;;;;6.05;2.55;;;11.00;99.90;;;;;;2070287;28;20034;-70
2022/11/18 04:29:22;;;;;;;3.85;2.13;;;11.00;99.90;;;;;;2070387;28;20540;-70
2022/11/18 04:30:23;;;;;;;6.85;2.30;;;11.10;99.90;;;;;;2069969;28;20367;-70
2022/11/18 04:31:23;;;;;;;6.00;2.53;;;11.10;99.90;;;;;;2070908;28;20026;-70
2022/11/18 04:32:24;;;;;;;5.93;2.35;;;11.10;99.90;;;;;;2068466;28;20133;-70
2022/11/18 04:33:25;;;;;;;7.53;3.03;;;11.10;99.90;;;;;;2069663;28;20026;-70
2022/11/18 04:34:25;;;;;;;6.32;2.50;;;11.10;99.90;;;;;;2070737;28;20497;-70
2022/11/18 04:35:26;;;;;;;5.68;2.28;;;11.20;99.90;;;;;;2069511;28;20486;-70
2022/11/18 04:36:27;;;;;;;4.57;2.10;;;11.20;99.90;;;;;;2069352;28;20034;-70
2022/11/18 04:37:27;;;;;;;4.20;2.20;;;11.20;99.90;;;;;;2070103;28;20554;-70
2022/11/18 04:38:28;;;;;;;4.68;1.90;;;11.20;99.90;;;;;;2070593;28;20030;-70
2022/11/18 04:39:28;;;;;;;3.35;1.95;;;11.20;99.90;;;;;;2070084;28;20037;-70
2022/11/18 04:40:29;;;;;;;9.45;2.70;;;11.20;99.90;;;;;;2070448;28;20055;-70
2022/11/18 04:42:49;;;;;;;7.60;2.50;;;11.20;99.90;;;;;;2070052;28;20026;-70
2022/11/18 04:43:50;;;;;;;12.27;2.55;;;11.20;99.90;;;;;;2070304;28;20022;-70
2022/11/18 04:44:50;;;;;;;5.45;1.92;;;11.30;99.90;;;;;;2069231;28;20030;-70
2022/11/18 04:45:51;;;;;;;7.15;2.40;;;11.30;99.90;;;;;;2070607;28;20052;-70
2022/11/18 04:46:53;;;;;;;5.57;1.95;;;11.30;99.90;;;;;;2068898;28;20057;-70
2022/11/18 04:47:53;;;;;;;4.80;2.10;;;11.30;99.90;;;;;;2069494;28;20018;-70
2022/11/18 04:48:54;;;;;;;5.72;2.03;;;11.30;99.90;;;;;;2069318;28;20122;-70
2022/11/18 04:49:54;;;;;;;5.07;2.35;;;11.30;99.90;;;;;;2069950;28;20022;-70
2022/11/18 04:51:03;;;;;;;7.60;2.53;;;11.30;99.90;;;;;;2069307;28;20109;-70
2022/11/18 04:52:04;;;;;;;6.60;2.53;;;11.30;99.90;;;;;;2070359;28;20112;-70
2022/11/18 04:53:04;;;;;;;6.43;2.42;;;11.30;99.90;;;;;;2069740;28;20188;-70
2022/11/18 04:54:05;;;;;;;4.13;2.10;;;11.30;99.90;;;;;;2070757;28;20033;-70
2022/11/18 04:55:06;;;;;;;3.35;2.03;;;11.40;99.90;;;;;;2070880;28;20071;-70
2022/11/18 04:56:07;;;;;;;2.88;2.20;;;11.40;99.90;;;;;;2070264;28;20883;-70
2022/11/18 04:57:08;;;;;;;4.78;2.40;;;11.40;99.90;;;;;;2070973;28;20097;-70
2022/11/18 04:58:08;;;;;;;3.03;1.95;;;11.40;99.90;;;;;;2070188;28;20030;-70
2022/11/18 04:59:10;;;;;;;4.65;2.03;;;11.40;99.90;;;;;;2071545;28;20477;-70
2022/11/18 05:00:11;;;;;;;8.85;2.28;;;11.40;99.90;;;;;;2070383;28;20081;-70
2022/11/18 05:01:11;;;;;;;7.70;2.33;;;11.40;99.90;;;;;;2069047;28;20034;-70
2022/11/18 05:02:12;;;;;;;4.65;1.98;;;11.40;99.90;;;;;;2067588;28;20069;-70
2022/11/18 05:03:14;;;;;;;3.53;1.92;;;11.40;99.90;;;;;;2067863;28;20540;-70
2022/11/18 05:04:17;;;;;;;4.53;2.05;;;11.40;99.90;;;;;;2068823;28;20030;-70
2022/11/18 05:05:18;;;;;;;6.28;2.25;;;11.40;99.90;;;;;;2068542;28;20033;-70
2022/11/18 05:06:18;;;;;;;4.05;2.10;;;11.40;99.90;;;;;;2071317;28;20494;-70
2022/11/18 05:07:19;;;;;;;5.20;2.10;;;11.40;99.90;;;;;;2069779;28;20109;-70
2022/11/18 05:08:19;;;;;;;5.47;2.00;;;11.40;99.90;;;;;;2070136;28;20036;-70
2022/11/18 05:09:20;;;;;;;5.53;2.25;;;11.40;99.90;;;;;;2070794;28;20077;-70
2022/11/18 05:10:21;;;;;;;5.70;2.20;;;11.40;99.90;;;;;;2069557;28;20026;-70
2022/11/18 05:12:51;;;;;;;6.07;2.45;;;11.30;99.90;;;;;;2069039;28;20097;-71
2022/11/18 05:13:51;;;;;;;4.25;2.30;;;11.30;99.90;;;;;;2068507;28;20042;-71
2022/11/18 05:14:52;;;;;;;7.13;2.35;;;11.30;99.90;;;;;;2070599;28;20149;-71
2022/11/18 05:15:52;;;;;;;5.10;2.20;;;11.30;99.90;;;;;;2069999;28;20025;-71
2022/11/18 05:16:54;;;;;;;7.38;2.30;;;11.30;99.90;;;;;;2070438;28;20036;-71
2022/11/18 05:17:55;;;;;;;5.18;2.25;;;11.30;99.90;;;;;;2069002;28;20034;-71
2022/11/18 05:18:55;;;;;;;5.55;2.10;;;11.30;99.90;;;;;;2070772;28;20025;-70
2022/11/18 05:19:56;;;;;;;3.40;1.83;;;11.30;99.90;;;;;;2070760;28;20117;-70
2022/11/18 05:20:56;;;;;;;7.65;2.35;;;11.30;99.90;;;;;;2069202;28;20029;-70
2022/11/18 05:21:57;;;;;;;3.90;2.22;;;11.20;99.90;;;;;;2068825;28;20141;-70
2022/11/18 05:22:58;;;;;;;3.00;1.88;;;11.20;99.90;;;;;;2067094;28;20038;-70
2022/11/18 05:23:59;;;;;;;3.92;1.80;;;11.20;99.90;;;;;;2070790;28;20026;-70
2022/11/18 05:25:00;;;;;;;5.43;2.03;;;11.20;99.90;;;;;;2068943;28;20129;-70
2022/11/18 05:26:04;;;;;;;1.88;1.63;;;11.20;99.90;;;;;;2069661;28;20026;-70
2022/11/18 05:27:05;;;;;;;4.90;2.03;;;11.20;99.90;;;;;;2069807;28;20085;-70
2022/11/18 05:28:05;;;;;;;3.63;2.10;;;11.20;99.90;;;;;;2068904;28;20029;-70
2022/11/18 05:29:06;;;;;;;5.43;2.38;;;11.20;99.90;;;;;;2070585;28;20053;-70
2022/11/18 05:30:07;;;;;;;5.35;2.00;;;11.20;99.90;;;;;;2069107;28;20026;-70
2022/11/18 05:31:13;;;;;;;4.40;2.10;;;11.20;99.90;;;;;;2067512;28;20117;-70
2022/11/18 05:32:13;;;;;;;5.72;2.10;;;11.20;99.90;;;;;;2069561;28;20084;-70
2022/11/18 05:33:14;;;;;;;2.47;1.85;;;11.20;99.90;;;;;;2068451;28;20022;-70
2022/11/18 05:34:15;;;;;;;7.65;2.72;;;11.20;99.90;;;;;;2069982;28;20068;-70
2022/11/18 05:35:16;;;;;;;5.55;2.55;;;11.10;99.90;;;;;;2071014;28;20025;-70
2022/11/18 05:36:18;;;;;;;4.97;2.35;;;11.10;99.90;;;;;;2069437;28;20061;-70
2022/11/18 05:37:19;;;;;;;5.18;2.17;;;11.10;99.90;;;;;;2069336;28;20056;-70
2022/11/18 05:38:19;;;;;;;4.28;1.77;;;11.10;99.90;;;;;;2070414;28;20034;-70
2022/11/18 05:39:20;;;;;;;5.93;2.05;;;11.10;99.90;;;;;;2070321;28;20025;-70
2022/11/18 05:40:20;;;;;;;4.95;2.42;;;11.10;99.90;;;;;;2070039;28;20117;-70
2022/11/18 05:43:59;;;;;;;5.07;2.33;;;11.10;99.90;;;;;;2066002;28;20789;-70
2022/11/18 05:44:59;;;;;;;5.28;2.03;;;11.10;99.90;;;;;;2067565;28;20449;-70
2022/11/18 05:46:00;;;;;;;5.15;2.17;;;11.10;99.90;;;;;;2068962;28;20061;-70
2022/11/18 05:47:01;;;;;;;5.07;2.28;;;11.10;99.90;;;;;;2069002;28;20105;-70
2022/11/18 05:48:03;;;;;;;7.53;2.35;;;11.10;99.90;;;;;;2069789;28;20021;-70
2022/11/18 05:49:03;;;;;;;5.35;2.92;;;11.10;99.90;;;;;;2069289;28;20037;-70
2022/11/18 05:50:04;;;;;;;3.95;2.25;;;11.10;99.90;;;;;;2069770;28;20018;-70
2022/11/18 05:51:05;;;;;;;6.13;2.60;;;11.10;99.90;;;;;;2068785;28;20049;-70